createdAt,value
2022-11-17T00:00:22.244Z,-0.03631
2022-11-17T00:01:22.268Z,-0.06755
2022-11-17T00:02:22.425Z,-0.05192
2022-11-17T00:03:22.336Z,-0.03631
2022-11-17T00:04:22.376Z,-0.08319
2022-11-17T00:05:22.411Z,-0.08319
2022-11-17T00:06:22.441Z,-0.1353
2022-11-17T00:07:22.522Z,-0.1546
2022-11-17T00:08:22.506Z,-0.21
2022-11-17T00:09:22.539Z,-0.2196
2022-11-17T00:10:22.572Z,-0.2414
2022-11-17T00:11:22.610Z,-0.2414
2022-11-17T00:12:23.032Z,-0.24
2022-11-17T00:13:22.673Z,-0.257
2022-11-17T00:14:22.704Z,-0.3112
2022-11-17T00:15:22.734Z,-0.2797
2022-11-17T00:16:22.768Z,-0.247
2022-11-17T00:17:22.801Z,-0.2157
2022-11-17T00:18:22.829Z,-0.2157
2022-11-17T00:19:22.863Z,-0.2314
2022-11-17T00:20:22.899Z,-0.2015
2022-11-17T00:21:22.934Z,-0.2678
2022-11-17T00:22:22.954Z,-0.2834
2022-11-17T00:23:22.984Z,-0.2834
2022-11-17T00:24:23.019Z,-0.2834
2022-11-17T00:25:23.057Z,-0.3014
2022-11-17T00:26:23.092Z,-0.3114
2022-11-17T00:27:23.118Z,-0.327
2022-11-17T00:28:23.164Z,-0.2958
2022-11-17T00:29:23.204Z,-0.3114
2022-11-17T00:30:23.238Z,-0.2919
2022-11-17T00:31:23.261Z,-0.3232
2022-11-17T00:32:23.294Z,-0.3232
2022-11-17T00:33:23.319Z,-0.3459
2022-11-17T00:34:23.357Z,-0.3232
2022-11-17T00:35:23.371Z,-0.3303
2022-11-17T00:36:23.402Z,-0.3772
2022-11-17T00:37:23.437Z,-0.3303
2022-11-17T00:38:23.475Z,-0.3615
2022-11-17T00:39:23.506Z,-0.3459
2022-11-17T00:40:23.545Z,-0.3303
2022-11-17T00:41:23.579Z,-0.2991
2022-11-17T00:42:23.612Z,-0.3146
2022-11-17T00:43:23.652Z,-0.3615
2022-11-17T00:44:23.673Z,-0.3843
2022-11-17T00:45:23.702Z,-0.4723
2022-11-17T00:46:23.733Z,-0.441
2022-11-17T00:47:23.768Z,-0.4254
2022-11-17T00:48:23.802Z,-0.4566
2022-11-17T00:49:23.843Z,-0.4098
2022-11-17T00:50:23.875Z,-0.3943
2022-11-17T00:51:23.903Z,-0.3787
2022-11-17T00:52:23.937Z,-0.417
2022-11-17T00:53:23.971Z,-0.452
2022-11-17T00:54:24.015Z,-0.3943
2022-11-17T00:55:24.094Z,-0.417
2022-11-17T00:56:24.083Z,-0.3943
2022-11-17T00:57:24.116Z,-0.4014
2022-11-17T00:58:24.147Z,-0.4691
2022-11-17T00:59:24.172Z,-0.438
2022-11-17T01:00:24.210Z,-0.4153
2022-11-17T01:01:24.290Z,-0.4308
2022-11-17T01:02:24.270Z,-0.4775
2022-11-17T01:03:24.309Z,-0.4619
2022-11-17T01:04:24.350Z,-0.4619
2022-11-17T01:05:26.788Z,-0.5087
2022-11-17T01:06:24.409Z,-0.5158
2022-11-17T01:07:24.561Z,-0.4691
2022-11-17T01:08:24.482Z,-0.4691
2022-11-17T01:09:24.501Z,-0.438
2022-11-17T01:10:24.529Z,-0.4691
2022-11-17T01:11:24.561Z,-0.4691
2022-11-17T01:12:24.589Z,-0.5002
2022-11-17T01:13:24.619Z,-0.5002
2022-11-17T01:14:24.648Z,-0.5002
2022-11-17T01:15:24.687Z,-0.5158
2022-11-17T01:16:24.707Z,-0.4846
2022-11-17T01:17:24.730Z,-0.4763
2022-11-17T01:18:24.754Z,-0.5074
2022-11-17T01:19:24.812Z,-0.4607
2022-11-17T01:20:24.815Z,-0.4918
2022-11-17T01:21:24.835Z,-0.4918
2022-11-17T01:22:24.870Z,-0.5074
2022-11-17T01:23:24.902Z,-0.4918
2022-11-17T01:24:24.937Z,-0.628
2022-11-17T01:25:24.966Z,-0.6125
2022-11-17T01:26:25.000Z,-0.5814
2022-11-17T01:27:25.021Z,-0.6125
2022-11-17T01:28:25.047Z,-0.6436
2022-11-17T01:29:25.083Z,-0.628
2022-11-17T01:30:25.113Z,-0.6125
2022-11-17T01:31:25.153Z,-0.611
2022-11-17T01:32:25.173Z,-0.6663
2022-11-17T01:33:25.207Z,-0.6508
2022-11-17T01:34:25.240Z,-0.6328
2022-11-17T01:35:25.278Z,-0.6157
2022-11-17T01:36:25.315Z,-0.6313
2022-11-17T01:37:25.344Z,-0.5846
2022-11-17T01:38:25.376Z,-0.5691
2022-11-17T01:39:25.406Z,-0.5846
2022-11-17T01:40:25.444Z,-0.6002
2022-11-17T01:41:25.475Z,-0.6313
2022-11-17T01:42:25.507Z,-0.654
2022-11-17T01:43:25.547Z,-0.689
2022-11-17T01:44:25.578Z,-0.7061
2022-11-17T01:45:25.604Z,-0.7061
2022-11-17T01:46:25.639Z,-0.7567
2022-11-17T01:47:25.672Z,-0.7256
2022-11-17T01:48:25.702Z,-0.7017
2022-11-17T01:49:25.739Z,-0.71
2022-11-17T01:50:25.769Z,-0.71
2022-11-17T01:51:25.795Z,-0.7483
2022-11-17T01:52:25.821Z,-0.7483
2022-11-17T01:53:25.842Z,-0.7172
2022-11-17T01:54:25.885Z,-0.771
2022-11-17T01:55:25.907Z,-0.7244
2022-11-17T01:56:25.939Z,-0.7244
2022-11-17T01:57:25.973Z,-0.7244
2022-11-17T01:58:26.009Z,-0.7089
2022-11-17T01:59:26.030Z,-0.6862
2022-11-17T02:00:26.056Z,-0.7244
2022-11-17T02:01:26.117Z,-0.74
2022-11-17T02:02:26.103Z,-0.74
2022-11-17T02:03:26.136Z,-0.7555
2022-11-17T02:04:26.167Z,-0.771
2022-11-17T02:05:26.200Z,-0.771
2022-11-17T02:06:26.224Z,-0.771
2022-11-17T02:07:26.306Z,-0.74
2022-11-17T02:08:26.297Z,-0.771
2022-11-17T02:09:26.325Z,-0.7555
2022-11-17T02:10:26.361Z,-0.7905
2022-11-17T02:11:26.387Z,-0.761
2022-11-17T02:12:26.423Z,-0.7765
2022-11-17T02:13:26.452Z,-0.8076
2022-11-17T02:14:26.477Z,-0.8231
2022-11-17T02:15:26.514Z,-0.8231
2022-11-17T02:16:26.549Z,-0.8386
2022-11-17T02:17:26.582Z,-0.8386
2022-11-17T02:18:26.612Z,-0.8542
2022-11-17T02:19:26.657Z,-0.8231
2022-11-17T02:20:26.688Z,-0.8614
2022-11-17T02:21:26.716Z,-0.8614
2022-11-17T02:22:26.743Z,-0.8458
2022-11-17T02:23:26.779Z,-0.8458
2022-11-17T02:24:26.808Z,-0.8769
2022-11-17T02:25:27.305Z,-0.8614
2022-11-17T02:26:26.877Z,-0.8458
2022-11-17T02:27:26.905Z,-0.8303
2022-11-17T02:28:26.936Z,-0.7838
2022-11-17T02:29:26.973Z,-0.8188
2022-11-17T02:30:27.012Z,-0.8498
2022-11-17T02:31:27.052Z,-0.8653
2022-11-17T02:32:27.082Z,-0.8808
2022-11-17T02:33:27.116Z,-0.8653
2022-11-17T02:34:27.156Z,-0.8343
2022-11-17T02:35:27.189Z,-0.8653
2022-11-17T02:36:27.230Z,-0.8498
2022-11-17T02:37:27.261Z,-0.857
2022-11-17T02:38:27.289Z,-0.8498
2022-11-17T02:39:27.327Z,-0.8343
2022-11-17T02:40:27.361Z,-0.8881
2022-11-17T02:41:27.387Z,-0.857
2022-11-17T02:42:27.420Z,-0.8881
2022-11-17T02:43:27.446Z,-0.8726
2022-11-17T02:44:27.479Z,-0.8881
2022-11-17T02:45:27.517Z,-0.8808
2022-11-17T02:46:27.556Z,-0.8653
2022-11-17T02:47:27.584Z,-0.8881
2022-11-17T02:48:27.614Z,-0.8881
2022-11-17T02:49:27.652Z,-0.8343
2022-11-17T02:50:28.617Z,-0.857
2022-11-17T02:51:27.726Z,-0.8881
2022-11-17T02:52:27.755Z,-0.9191
2022-11-17T02:53:27.775Z,-0.9036
2022-11-17T02:54:27.808Z,-0.9566
2022-11-17T02:55:27.849Z,-0.9256
2022-11-17T02:56:27.870Z,-0.9101
2022-11-17T02:57:27.905Z,-0.9256
2022-11-17T02:58:27.938Z,-0.9319
2022-11-17T02:59:27.971Z,-0.9101
2022-11-17T03:00:28.001Z,-0.9256
2022-11-17T03:01:28.092Z,-0.9256
2022-11-17T03:02:28.051Z,-0.9319
2022-11-17T03:03:28.077Z,-0.9319
2022-11-17T03:04:28.116Z,-0.9474
2022-11-17T03:05:28.152Z,-0.9164
2022-11-17T03:06:28.184Z,-0.9164
2022-11-17T03:07:28.242Z,-0.9319
2022-11-17T03:08:32.792Z,-0.9319
2022-11-17T03:09:28.283Z,-0.8855
2022-11-17T03:10:28.311Z,-0.901
2022-11-17T03:11:28.347Z,-0.853
2022-11-17T03:12:28.384Z,-0.8839
2022-11-17T03:13:28.415Z,-0.8839
2022-11-17T03:14:28.452Z,-0.9148
2022-11-17T03:15:28.483Z,-0.9148
2022-11-17T03:16:28.514Z,-0.9148
2022-11-17T03:17:28.550Z,-0.9303
2022-11-17T03:18:28.579Z,-0.9979
2022-11-17T03:19:28.616Z,-0.9979
2022-11-17T03:20:28.663Z,-0.9515
2022-11-17T03:21:28.701Z,-0.9717
2022-11-17T03:22:28.731Z,-0.9922
2022-11-17T03:23:28.764Z,-1.005
2022-11-17T03:24:28.801Z,-0.9938
2022-11-17T03:25:28.828Z,-0.9938
2022-11-17T03:26:28.865Z,-0.9938
2022-11-17T03:27:28.895Z,-0.963
2022-11-17T03:28:28.925Z,-0.963
2022-11-17T03:29:28.962Z,-0.963
2022-11-17T03:30:32.010Z,-0.9784
2022-11-17T03:31:29.028Z,-0.963
2022-11-17T03:32:29.065Z,-0.963
2022-11-17T03:33:29.096Z,-0.895
2022-11-17T03:34:29.135Z,-0.963
2022-11-17T03:35:29.160Z,-0.963
2022-11-17T03:36:29.191Z,-0.963
2022-11-17T03:37:29.221Z,-0.963
2022-11-17T03:38:29.256Z,-0.9322
2022-11-17T03:39:29.284Z,-0.9258
2022-11-17T03:40:29.323Z,-0.9412
2022-11-17T03:41:29.363Z,-0.9566
2022-11-17T03:42:29.393Z,-0.9875
2022-11-17T03:43:29.426Z,-0.9938
2022-11-17T03:44:29.459Z,-0.9784
2022-11-17T03:45:29.488Z,-0.9566
2022-11-17T03:46:29.514Z,-0.9784
2022-11-17T03:47:29.553Z,-0.9784
2022-11-17T03:48:29.578Z,-0.963
2022-11-17T03:49:29.618Z,-0.963
2022-11-17T03:50:29.648Z,-0.963
2022-11-17T03:51:29.683Z,-0.9566
2022-11-17T03:52:29.752Z,-0.9784
2022-11-17T03:53:29.747Z,-0.963
2022-11-17T03:54:29.779Z,-1.009
2022-11-17T03:55:29.815Z,-0.9938
2022-11-17T03:56:29.850Z,-0.9784
2022-11-17T03:57:29.888Z,-0.9857
2022-11-17T03:58:29.922Z,-0.9857
2022-11-17T03:59:29.958Z,-0.9322
2022-11-17T04:00:29.995Z,-0.9322
2022-11-17T04:01:30.092Z,-0.9015
2022-11-17T04:02:30.063Z,-0.9015
2022-11-17T04:03:30.097Z,-0.9015
2022-11-17T04:04:30.137Z,-0.9169
2022-11-17T04:05:30.168Z,-0.9015
2022-11-17T04:06:30.202Z,-0.9169
2022-11-17T04:07:30.280Z,-0.9476
2022-11-17T04:08:30.267Z,-0.9476
2022-11-17T04:09:30.302Z,-0.9169
2022-11-17T04:10:30.337Z,-0.895
2022-11-17T04:11:30.377Z,-0.9322
2022-11-17T04:12:30.411Z,-0.9015
2022-11-17T04:13:30.445Z,-0.8797
2022-11-17T04:14:30.466Z,-0.9104
2022-11-17T04:15:30.498Z,-0.895
2022-11-17T04:16:30.526Z,-0.895
2022-11-17T04:17:30.566Z,-0.8797
2022-11-17T04:18:30.599Z,-0.9104
2022-11-17T04:19:30.642Z,-0.895
2022-11-17T04:20:30.667Z,-0.895
2022-11-17T04:21:30.697Z,-0.895
2022-11-17T04:22:30.727Z,-0.8797
2022-11-17T04:23:30.760Z,-0.895
2022-11-17T04:24:30.796Z,-0.9322
2022-11-17T04:25:30.830Z,-0.9322
2022-11-17T04:26:30.867Z,-0.9015
2022-11-17T04:27:30.899Z,-0.9015
2022-11-17T04:28:30.942Z,-0.8862
2022-11-17T04:29:30.976Z,-0.8862
2022-11-17T04:30:31.006Z,-0.8556
2022-11-17T04:31:31.039Z,-0.8556
2022-11-17T04:32:31.071Z,-0.8556
2022-11-17T04:33:31.103Z,-0.8556
2022-11-17T04:34:31.134Z,-0.8403
2022-11-17T04:35:31.172Z,-0.8403
2022-11-17T04:36:31.202Z,-0.8403
2022-11-17T04:37:31.238Z,-0.8556
2022-11-17T04:38:31.266Z,-0.8556
2022-11-17T04:39:31.300Z,-0.8556
2022-11-17T04:40:31.329Z,-0.825
2022-11-17T04:41:31.354Z,-0.8403
2022-11-17T04:42:31.383Z,-0.8556
2022-11-17T04:43:31.405Z,-0.825
2022-11-17T04:44:31.444Z,-0.825
2022-11-17T04:45:31.480Z,-0.7945
2022-11-17T04:46:31.513Z,-0.7945
2022-11-17T04:47:31.545Z,-0.7945
2022-11-17T04:48:31.577Z,-0.8325
2022-11-17T04:49:31.612Z,-0.8325
2022-11-17T04:50:31.638Z,-0.8325
2022-11-17T04:51:31.679Z,-0.8325
2022-11-17T04:52:31.711Z,-0.8325
2022-11-17T04:53:31.878Z,-0.8325
2022-11-17T04:54:31.777Z,-0.8477
2022-11-17T04:55:31.806Z,-0.8629
2022-11-17T04:56:31.841Z,-0.8325
2022-11-17T04:57:31.877Z,-0.8325
2022-11-17T04:58:31.913Z,-0.8477
2022-11-17T04:59:31.953Z,-0.8477
2022-11-17T05:00:31.987Z,-0.8172
2022-11-17T05:01:32.010Z,-0.802
2022-11-17T05:02:32.121Z,-0.802
2022-11-17T05:03:32.330Z,-0.802
2022-11-17T05:04:32.110Z,-0.7717
2022-11-17T05:05:32.147Z,-0.7717
2022-11-17T05:06:32.175Z,-0.7717
2022-11-17T05:07:32.296Z,-0.7112
2022-11-17T05:08:32.241Z,-0.7112
2022-11-17T05:09:32.270Z,-0.7263
2022-11-17T05:10:32.292Z,-0.7263
2022-11-17T05:11:32.316Z,-0.7263
2022-11-17T05:12:32.349Z,-0.7414
2022-11-17T05:13:32.612Z,-0.7112
2022-11-17T05:14:32.409Z,-0.7112
2022-11-17T05:15:32.449Z,-0.7263
2022-11-17T05:16:32.491Z,-0.7263
2022-11-17T05:17:32.521Z,-0.7035
2022-11-17T05:18:32.556Z,-0.7186
2022-11-17T05:19:32.589Z,-0.6884
2022-11-17T05:20:32.618Z,-0.7035
2022-11-17T05:21:32.646Z,-0.7035
2022-11-17T05:22:32.680Z,-0.7186
2022-11-17T05:23:32.952Z,-0.7338
2022-11-17T05:24:32.732Z,-0.7338
2022-11-17T05:25:32.764Z,-0.7186
2022-11-17T05:26:32.799Z,-0.7489
2022-11-17T05:27:32.825Z,-0.7489
2022-11-17T05:28:32.855Z,-0.7489
2022-11-17T05:29:32.891Z,-0.7167
2022-11-17T05:30:32.919Z,-0.6664
2022-11-17T05:31:32.957Z,-0.7015
2022-11-17T05:32:32.982Z,-0.6864
2022-11-17T05:33:37.591Z,-0.6864
2022-11-17T05:34:33.050Z,-0.6513
2022-11-17T05:35:33.079Z,-0.6513
2022-11-17T05:36:33.111Z,-0.6361
2022-11-17T05:37:33.144Z,-0.6361
2022-11-17T05:38:33.198Z,-0.6733
2022-11-17T05:39:33.214Z,-0.6884
2022-11-17T05:40:33.251Z,-0.6285
2022-11-17T05:41:33.276Z,-0.6503
2022-11-17T05:42:33.308Z,-0.6503
2022-11-17T05:43:33.614Z,-0.6503
2022-11-17T05:44:33.377Z,-0.6133
2022-11-17T05:45:33.403Z,-0.5753
2022-11-17T05:46:33.434Z,-0.5904
2022-11-17T05:47:33.472Z,-0.5904
2022-11-17T05:48:33.512Z,-0.6104
2022-11-17T05:49:33.538Z,-0.6133
2022-11-17T05:50:33.556Z,-0.6133
2022-11-17T05:51:33.584Z,-0.6807
2022-11-17T05:52:33.616Z,-0.6656
2022-11-17T05:53:34.139Z,-0.6133
2022-11-17T05:54:33.664Z,-0.6436
2022-11-17T05:55:33.694Z,-0.6285
2022-11-17T05:56:33.726Z,-0.6436
2022-11-17T05:57:33.782Z,-0.6285
2022-11-17T05:58:33.795Z,-0.6133
2022-11-17T05:59:33.824Z,-0.6133
2022-11-17T06:00:33.851Z,-0.6133
2022-11-17T06:01:33.885Z,-0.6133
2022-11-17T06:02:33.921Z,-0.5601
2022-11-17T06:03:34.387Z,-0.5904
2022-11-17T06:04:34.055Z,-0.6055
2022-11-17T06:05:34.015Z,-0.5904
2022-11-17T06:06:34.046Z,-0.5753
2022-11-17T06:07:34.146Z,-0.6055
2022-11-17T06:08:34.113Z,-0.6207
2022-11-17T06:09:34.144Z,-0.6055
2022-11-17T06:10:34.176Z,-0.6055
2022-11-17T06:11:34.205Z,-0.5904
2022-11-17T06:12:34.231Z,-0.6055
2022-11-17T06:13:34.609Z,-0.5904
2022-11-17T06:14:34.334Z,-0.5753
2022-11-17T06:15:34.328Z,-0.5676
2022-11-17T06:16:34.363Z,-0.5827
2022-11-17T06:17:34.397Z,-0.5676
2022-11-17T06:18:34.432Z,-0.5676
2022-11-17T06:19:34.472Z,-0.5525
2022-11-17T06:20:34.505Z,-0.5525
2022-11-17T06:22:04.444Z,-0.5676
2022-11-17T06:22:34.563Z,-0.5827
2022-11-17T06:23:34.853Z,-0.5827
2022-11-17T06:24:34.612Z,-0.5979
2022-11-17T06:25:34.646Z,-0.5979
2022-11-17T06:26:34.676Z,-0.5979
2022-11-17T06:27:34.703Z,-0.5913
2022-11-17T06:28:34.726Z,-0.6283
2022-11-17T06:29:38.182Z,-0.6435
2022-11-17T06:30:34.790Z,-0.6435
2022-11-17T06:31:34.820Z,-0.6283
2022-11-17T06:32:34.871Z,-0.6283
2022-11-17T06:33:35.296Z,-0.6435
2022-11-17T06:34:34.905Z,-0.674
2022-11-17T06:35:34.930Z,-0.674
2022-11-17T06:36:34.956Z,-0.6587
2022-11-17T06:37:34.987Z,-0.6435
2022-11-17T06:38:35.016Z,-0.6587
2022-11-17T06:39:35.051Z,-0.6464
2022-11-17T06:40:35.076Z,-0.6312
2022-11-17T06:41:35.106Z,-0.6312
2022-11-17T06:42:35.145Z,-0.6464
2022-11-17T06:43:35.483Z,-0.6159
2022-11-17T06:44:35.203Z,-0.5808
2022-11-17T06:45:35.235Z,-0.596
2022-11-17T06:46:35.270Z,-0.596
2022-11-17T06:47:35.302Z,-0.5656
2022-11-17T06:48:35.536Z,-0.5352
2022-11-17T06:49:35.376Z,-0.5656
2022-11-17T06:50:35.415Z,-0.5808
2022-11-17T06:51:35.457Z,-0.596
2022-11-17T06:52:35.511Z,-0.6141
2022-11-17T06:53:35.820Z,-0.6293
2022-11-17T06:54:35.558Z,-0.6445
2022-11-17T06:55:35.584Z,-0.6445
2022-11-17T06:56:35.617Z,-0.6293
2022-11-17T06:57:35.654Z,-0.6065
2022-11-17T06:58:35.930Z,-0.5761
2022-11-17T06:59:35.707Z,-0.6065
2022-11-17T07:00:35.812Z,-0.5913
2022-11-17T07:01:35.761Z,-0.6065
2022-11-17T07:02:35.800Z,-0.6065
2022-11-17T07:03:36.159Z,-0.5837
2022-11-17T07:04:35.857Z,-0.599
2022-11-17T07:05:35.885Z,-0.6601
2022-11-17T07:06:35.925Z,-0.6601
2022-11-17T07:07:36.008Z,-0.6448
2022-11-17T07:08:36.315Z,-0.6601
2022-11-17T07:09:36.015Z,-0.6601
2022-11-17T07:10:36.058Z,-0.6755
2022-11-17T07:11:36.075Z,-0.7062
2022-11-17T07:12:36.106Z,-0.654
2022-11-17T07:13:36.146Z,-0.6233
2022-11-17T07:14:36.174Z,-0.6159
2022-11-17T07:15:36.202Z,-0.633
2022-11-17T07:16:36.235Z,-0.5645
2022-11-17T07:17:36.260Z,-0.5628
2022-11-17T07:18:36.653Z,-0.6106
2022-11-17T07:19:36.325Z,-0.6414
2022-11-17T07:20:36.359Z,-0.6414
2022-11-17T07:21:36.391Z,-0.6106
2022-11-17T07:22:36.405Z,-0.6106
2022-11-17T07:23:36.439Z,-0.626
2022-11-17T07:24:36.473Z,-0.6414
2022-11-17T07:25:36.516Z,-0.626
2022-11-17T07:26:36.544Z,-0.626
2022-11-17T07:27:36.635Z,-0.626
2022-11-17T07:28:37.089Z,-0.5888
2022-11-17T07:29:36.648Z,-0.6414
2022-11-17T07:30:36.670Z,-0.626
2022-11-17T07:31:36.692Z,-0.6042
2022-11-17T07:32:36.725Z,-0.5888
2022-11-17T07:33:36.756Z,-0.5734
2022-11-17T07:34:36.787Z,-0.558
2022-11-17T07:35:36.828Z,-0.5888
2022-11-17T07:36:36.861Z,-0.5511
2022-11-17T07:37:36.888Z,-0.582
2022-11-17T07:38:37.288Z,-0.5511
2022-11-17T07:39:36.940Z,-0.5357
2022-11-17T07:40:36.978Z,-0.5666
2022-11-17T07:41:37.015Z,-0.5511
2022-11-17T07:42:37.045Z,-0.513
2022-11-17T07:43:37.105Z,-0.513
2022-11-17T07:44:37.137Z,-0.5071
2022-11-17T07:45:37.149Z,-0.5071
2022-11-17T07:46:37.173Z,-0.5381
2022-11-17T07:47:37.203Z,-0.6002
2022-11-17T07:48:37.376Z,-0.6002
2022-11-17T07:49:37.261Z,-0.5846
2022-11-17T07:50:37.301Z,-0.5846
2022-11-17T07:51:37.326Z,-0.5691
2022-11-17T07:52:41.230Z,-0.5381
2022-11-17T07:53:37.387Z,-0.5464
2022-11-17T07:54:37.417Z,-0.593
2022-11-17T07:55:37.441Z,-0.5774
2022-11-17T07:56:37.479Z,-0.5619
2022-11-17T07:57:37.511Z,-0.5619
2022-11-17T07:58:37.986Z,-0.5293
2022-11-17T07:59:37.581Z,-0.5269
2022-11-17T08:00:37.695Z,-0.5892
2022-11-17T08:01:37.650Z,-0.6204
2022-11-17T08:02:37.676Z,-0.5892
2022-11-17T08:03:37.762Z,-0.6048
2022-11-17T08:04:37.722Z,-0.6275
2022-11-17T08:05:41.977Z,-0.6119
2022-11-17T08:06:37.780Z,-0.5736
2022-11-17T08:07:37.855Z,-0.5736
2022-11-17T08:08:38.324Z,-0.5892
2022-11-17T08:09:37.882Z,-0.5736
2022-11-17T08:10:37.909Z,-0.5736
2022-11-17T08:11:37.933Z,-0.5821
2022-11-17T08:12:37.968Z,-0.5664
2022-11-17T08:13:38.000Z,-0.5664
2022-11-17T08:14:38.033Z,-0.565
2022-11-17T08:15:38.065Z,-0.5627
2022-11-17T08:16:38.084Z,-0.5904
2022-11-17T08:17:38.121Z,-0.6049
2022-11-17T08:18:38.522Z,-0.5891
2022-11-17T08:19:38.186Z,-0.5961
2022-11-17T08:20:38.265Z,-0.5577
2022-11-17T08:21:38.242Z,-0.5263
2022-11-17T08:22:38.280Z,-0.5277
2022-11-17T08:23:38.312Z,-0.559
2022-11-17T08:24:38.332Z,-0.5747
2022-11-17T08:25:38.359Z,-0.5677
2022-11-17T08:26:38.395Z,-0.5834
2022-11-17T08:27:38.420Z,-0.552
2022-11-17T08:28:39.000Z,-0.5677
2022-11-17T08:29:38.474Z,-0.5834
2022-11-17T08:30:38.510Z,-0.57
2022-11-17T08:31:38.530Z,-0.5473
2022-11-17T08:32:38.563Z,-0.6102
2022-11-17T08:33:38.591Z,-0.6418
2022-11-17T08:34:38.623Z,-0.5944
2022-11-17T08:35:38.646Z,-0.6418
2022-11-17T08:36:38.686Z,-0.6576
2022-11-17T08:37:38.717Z,-0.626
2022-11-17T08:38:38.869Z,-0.5944
2022-11-17T08:39:38.776Z,-0.5774
2022-11-17T08:40:38.803Z,-0.5369
2022-11-17T08:41:38.826Z,-0.5685
2022-11-17T08:42:38.859Z,-0.5527
2022-11-17T08:43:38.902Z,-0.5685
2022-11-17T08:44:38.923Z,-0.6002
2022-11-17T08:45:38.955Z,-0.5844
2022-11-17T08:46:38.974Z,-0.6161
2022-11-17T08:47:38.994Z,-0.6623
2022-11-17T08:48:39.246Z,-0.6531
2022-11-17T08:49:39.064Z,-0.669
2022-11-17T08:50:39.090Z,-0.669
2022-11-17T08:51:39.114Z,-0.6182
2022-11-17T08:52:39.152Z,-0.65
2022-11-17T08:53:39.180Z,-0.632
2022-11-17T08:54:39.212Z,-0.632
2022-11-17T08:55:41.190Z,-0.5935
2022-11-17T08:56:39.270Z,-0.6094
2022-11-17T08:57:39.297Z,-0.6253
2022-11-17T08:58:39.485Z,-0.648
2022-11-17T08:59:39.362Z,-0.6253
2022-11-17T09:00:39.455Z,-0.6161
2022-11-17T09:01:39.494Z,-0.6002
2022-11-17T09:02:39.465Z,-0.632
2022-11-17T09:03:39.487Z,-0.6161
2022-11-17T09:04:39.531Z,-0.6002
2022-11-17T09:05:39.565Z,-0.632
2022-11-17T09:06:39.590Z,-0.6161
2022-11-17T09:07:39.638Z,-0.5685
2022-11-17T09:08:45.688Z,-0.53
2022-11-17T09:09:39.787Z,-0.5776
2022-11-17T09:10:39.704Z,-0.6253
2022-11-17T09:11:39.726Z,-0.6094
2022-11-17T09:12:39.773Z,-0.5935
2022-11-17T09:13:39.799Z,-0.6094
2022-11-17T09:14:39.831Z,-0.5935
2022-11-17T09:15:39.858Z,-0.6253
2022-11-17T09:16:39.896Z,-0.6094
2022-11-17T09:17:39.919Z,-0.5617
2022-11-17T09:18:40.258Z,-0.5458
2022-11-17T09:19:39.978Z,-0.5776
2022-11-17T09:20:45.303Z,-0.6026
2022-11-17T09:21:40.030Z,-0.5935
2022-11-17T09:22:40.055Z,-0.6253
2022-11-17T09:23:40.280Z,-0.5935
2022-11-17T09:24:40.136Z,-0.5935
2022-11-17T09:25:40.196Z,-0.539
2022-11-17T09:26:40.183Z,-0.5708
2022-11-17T09:27:40.212Z,-0.5549
2022-11-17T09:28:40.519Z,-0.5232
2022-11-17T09:29:40.270Z,-0.5232
2022-11-17T09:30:40.295Z,-0.5549
2022-11-17T09:31:40.451Z,-0.5538
2022-11-17T09:32:40.359Z,-0.522
2022-11-17T09:33:40.390Z,-0.5708
2022-11-17T09:34:40.580Z,-0.5697
2022-11-17T09:35:40.455Z,-0.5867
2022-11-17T09:36:40.476Z,-0.5379
2022-11-17T09:37:40.512Z,-0.5596
2022-11-17T09:38:40.795Z,-0.5406
2022-11-17T09:39:40.574Z,-0.5088
2022-11-17T09:40:40.606Z,-0.5088
2022-11-17T09:41:40.642Z,-0.5088
2022-11-17T09:42:40.668Z,-0.4929
2022-11-17T09:43:40.700Z,-0.4929
2022-11-17T09:44:40.740Z,-0.4929
2022-11-17T09:45:40.761Z,-0.4613
2022-11-17T09:46:40.792Z,-0.4613
2022-11-17T09:47:40.830Z,-0.4613
2022-11-17T09:48:41.659Z,-0.4237
2022-11-17T09:49:40.893Z,-0.4712
2022-11-17T09:50:40.927Z,-0.4613
2022-11-17T09:51:40.953Z,-0.4057
2022-11-17T09:52:40.977Z,-0.4237
2022-11-17T09:53:41.017Z,-0.4395
2022-11-17T09:54:41.061Z,-0.3234
2022-11-17T09:55:41.080Z,-0.2919
2022-11-17T09:56:41.109Z,-0.3076
2022-11-17T09:57:41.148Z,-0.2919
2022-11-17T09:58:41.168Z,-0.3234
2022-11-17T09:59:41.204Z,-0.3392
2022-11-17T10:00:41.239Z,-0.3076
2022-11-17T10:01:41.322Z,-0.3234
2022-11-17T10:02:41.313Z,-0.3234
2022-11-17T10:03:45.431Z,-0.3234
2022-11-17T10:04:41.377Z,-0.3392
2022-11-17T10:05:41.415Z,-0.3234
2022-11-17T10:06:41.437Z,-0.3234
2022-11-17T10:07:41.470Z,-0.3076
2022-11-17T10:08:41.502Z,-0.3076
2022-11-17T10:09:41.537Z,-0.3076
2022-11-17T10:10:41.558Z,-0.3076
2022-11-17T10:11:41.589Z,-0.2919
2022-11-17T10:12:41.631Z,-0.2919
2022-11-17T10:13:41.659Z,-0.3076
2022-11-17T10:14:41.679Z,-0.2604
2022-11-17T10:15:41.721Z,-0.2447
2022-11-17T10:16:41.740Z,-0.2291
2022-11-17T10:17:41.770Z,-0.2291
2022-11-17T10:18:41.805Z,-0.2291
2022-11-17T10:19:41.830Z,-0.2063
2022-11-17T10:20:41.864Z,-0.222
2022-11-17T10:21:41.884Z,-0.2063
2022-11-17T10:22:41.924Z,-0.1907
2022-11-17T10:23:46.564Z,-0.222
2022-11-17T10:24:41.973Z,-0.222
2022-11-17T10:25:42.006Z,-0.2692
2022-11-17T10:26:42.039Z,-0.222
2022-11-17T10:27:42.068Z,-0.2063
2022-11-17T10:28:42.114Z,-0.2063
2022-11-17T10:29:42.143Z,-0.2134
2022-11-17T10:30:42.165Z,-0.1977
2022-11-17T10:31:42.194Z,-0.1821
2022-11-17T10:32:47.897Z,-0.1665
2022-11-17T10:33:42.261Z,-0.1821
2022-11-17T10:34:42.301Z,-0.1821
2022-11-17T10:35:42.337Z,-0.1665
2022-11-17T10:36:42.369Z,-0.1353
2022-11-17T10:37:42.406Z,-0.1821
2022-11-17T10:38:42.431Z,-0.1353
2022-11-17T10:39:42.460Z,-0.1353
2022-11-17T10:40:42.502Z,-0.1197
2022-11-17T10:41:42.531Z,-0.1509
2022-11-17T10:42:42.569Z,-0.1736
2022-11-17T10:43:42.594Z,-0.1509
2022-11-17T10:44:42.627Z,-0.158
2022-11-17T10:45:42.659Z,-0.158
2022-11-17T10:46:46.488Z,-0.1269
2022-11-17T10:47:42.723Z,-0.1425
2022-11-17T10:48:42.754Z,-0.1197
2022-11-17T10:49:42.787Z,-0.158
2022-11-17T10:50:42.819Z,-0.1425
2022-11-17T10:51:42.836Z,-0.1425
2022-11-17T10:52:42.869Z,-0.1269
2022-11-17T10:53:46.272Z,-0.1269
2022-11-17T10:54:42.932Z,-0.1425
2022-11-17T10:55:42.968Z,-0.09584
2022-11-17T10:56:43.054Z,-0.0731
2022-11-17T10:57:43.041Z,-0.07156
2022-11-17T10:58:43.071Z,-0.07156
2022-11-17T10:59:43.095Z,-0.08468
2022-11-17T11:00:43.175Z,-0.1182
2022-11-17T11:01:43.207Z,-0.1159
2022-11-17T11:02:43.199Z,-0.1315
2022-11-17T11:03:43.217Z,-0.1315
2022-11-17T11:04:43.242Z,-0.1315
2022-11-17T11:05:43.270Z,-0.1471
2022-11-17T11:06:43.307Z,-0.1471
2022-11-17T11:07:43.334Z,-0.1315
2022-11-17T11:08:43.371Z,-0.1315
2022-11-17T11:09:43.396Z,-0.1784
2022-11-17T11:10:43.424Z,-0.194
2022-11-17T11:11:43.454Z,-0.1627
2022-11-17T11:12:43.492Z,-0.1471
2022-11-17T11:13:43.518Z,-0.14
2022-11-17T11:14:43.549Z,-0.14
2022-11-17T11:15:43.582Z,-0.1557
2022-11-17T11:16:47.755Z,-0.2027
2022-11-17T11:17:43.640Z,-0.2254
2022-11-17T11:18:43.668Z,-0.2027
2022-11-17T11:19:43.695Z,-0.187
2022-11-17T11:20:43.741Z,-0.1713
2022-11-17T11:21:43.767Z,-0.1557
2022-11-17T11:22:43.785Z,-0.2411
2022-11-17T11:23:43.830Z,-0.2097
2022-11-17T11:24:43.861Z,-0.14
2022-11-17T11:25:43.886Z,-0.14
2022-11-17T11:26:43.918Z,-0.1713
2022-11-17T11:27:43.953Z,-0.187
2022-11-17T11:28:47.149Z,-0.2184
2022-11-17T11:29:44.016Z,-0.2184
2022-11-17T11:30:44.046Z,-0.2342
2022-11-17T11:31:44.083Z,-0.2184
2022-11-17T11:32:44.110Z,-0.187
2022-11-17T11:33:44.130Z,-0.2342
2022-11-17T11:34:44.434Z,-0.2499
2022-11-17T11:35:44.199Z,-0.2172
2022-11-17T11:36:44.228Z,-0.1822
2022-11-17T11:37:44.261Z,-0.1507
2022-11-17T11:38:44.289Z,-0.135
2022-11-17T11:39:44.331Z,-0.1193
2022-11-17T11:40:44.351Z,-0.1507
2022-11-17T11:41:44.397Z,-0.1664
2022-11-17T11:42:44.425Z,-0.1136
2022-11-17T11:43:44.451Z,-0.1293
2022-11-17T11:44:44.479Z,-0.1607
2022-11-17T11:45:44.509Z,-0.1787
2022-11-17T11:46:44.547Z,-0.1922
2022-11-17T11:47:44.565Z,-0.1922
2022-11-17T11:48:44.597Z,-0.145
2022-11-17T11:49:44.624Z,-0.1595
2022-11-17T11:50:44.663Z,-0.1765
2022-11-17T11:51:44.695Z,-0.1945
2022-11-17T11:52:44.718Z,-0.1607
2022-11-17T11:53:44.755Z,-0.1765
2022-11-17T11:54:50.454Z,-0.208
2022-11-17T11:55:44.797Z,-0.208
2022-11-17T11:56:44.831Z,-0.2238
2022-11-17T11:57:44.865Z,-0.1765
2022-11-17T11:58:44.893Z,-0.121
2022-11-17T11:59:44.922Z,-0.1547
2022-11-17T12:00:44.961Z,-0.2033
2022-11-17T12:01:44.988Z,-0.2033
2022-11-17T12:02:45.074Z,-0.2191
2022-11-17T12:03:45.067Z,-0.2337
2022-11-17T12:04:45.076Z,-0.2337
2022-11-17T12:05:45.111Z,-0.2191
2022-11-17T12:06:45.140Z,-0.2349
2022-11-17T12:07:45.182Z,-0.2191
2022-11-17T12:08:45.217Z,-0.2529
2022-11-17T12:09:45.252Z,-0.2845